Terminal Aerodrome Forecast
Issued by NWS

Home | Current Version | Previous Version | Text Only | Print | Product List | Glossary On
Versions: 1 2 3 4 5 6 7 8 9 10 11 12 13 14 15 16 17 18 19 20
000
FTUS46 KSEW 180500
TAFBFI
TAF
KBFI 180528Z 1806/1906 25008KT P6SM VCSH BKN015 BKN025
     FM180800 18008KT P6SM SCT015 BKN025
     FM181100 18008KT P6SM SCT025 BKN045
     FM181300 18008KT P6SM SCT030 SCT050
     FM181900 VRB03KT P6SM SCT060
     FM190000 32006KT P6SM SCT250=

USA.gov is the U.S. government's official web portal to all federal, state and local government web resources and services.